General Aviation Weather

Text Reports

Enter one or more of the following location identifiers separated by a space:

Zip Code, Four-Character ICAO or Three-Character IATA airport codes.

METAR - Aviation Routine Weather Report
KRDK - Red Oak, Iowa
Updated at 1:55 PM GMT on January 26, 2015 (7:55 AM CST):
METAR KRDK 261355Z AUTO 21008KT 8SM CLR M03/M04 A2988 RMK AO2
TAF - Terminal Area Forecast
KRDK - Red Oak, Iowa
Updated at 1:55 PM GMT on January 26, 2015 (7:55 AM CST):
No TAF is currently available for this location.
Decoded:
No decoded TAF is available.
PIREP - Pilot Weather Report
KRDK - Red Oak, Iowa
Updated at 1:55 PM GMT on January 26, 2015 (7:55 AM CST):
No PIREP is currently available for this location.
AIRMET - Airmens Meteorological Information
KRDK - Red Oak, Iowa
Updated at 1:55 PM GMT on January 26, 2015 (7:55 AM CST):
No AIRMET is currently available for this location.
SIGMET - Significant Meteorological Information
KRDK - Red Oak, Iowa
Updated at 1:55 PM GMT on January 26, 2015 (7:55 AM CST):
No SIGMET is currently available for this location.
NOTAM - Notice to Airmen
KRDK - Red Oak, Iowa
Updated at 1:55 PM GMT on January 26, 2015 (7:55 AM CST):
No NOTAM is currently available for this location.
Forecast Area
KRDK - Red Oak, Iowa
Updated at 1:55 PM GMT on January 26, 2015 (7:55 AM CST):
No NOTAM is currently available for this location.
Aviation Weather Maps